• location
  • image
mod_vvisit_countermod_vvisit_countermod_vvisit_countermod_vvisit_countermod_vvisit_countermod_vvisit_countermod_vvisit_counter
mod_vvisit_counterToday132
mod_vvisit_counterYesterday830
mod_vvisit_counterThis week962
mod_vvisit_counterLast week4472
mod_vvisit_counterThis month6790
mod_vvisit_counterLast month17680
mod_vvisit_counterAll days1032702

We have: 21 guests, 1 bots online
Your IP: 3.80.177.176
 , 
Today: Dec 11, 2018
Airport / News / June 2013

June 2013

The world’s biggest trade exhibition for the logistics industry Transport Logistic 2013 took place on June 4-7, 2013 in Munich (Germany). The show also encompassed Air Cargo Europe, an exhibition and conference for the global air freight and logistics industry, where Siauliai International Airport was presented.

June 2013 Prd1

Transport Logistic international exhibition, held every two years and specialized for logistics, communications, IT and supply chain management, is the largest exhibition of its kind in the world. The show covers the entire world of transport and logistics - telematics, transport processes, logistics, and freight transport. Based on the data of the exhibition organizers, this year’s exhibition attracted about 2,000 exhibitors from more than 60 countries and a record 53,000 trade visitors. Most visitors came from Germany, Austria, Holland, Italy, Switzerland, France, the Czech Republic, Poland, Great Britain and Spain. A number of additional events, like workshops, forums, conferences, etc. were held during the show, which covered the issues of the logistics and transport economy markets, trends and innovations, as well as ecology in logistics, telematics, cargo transportation without Borders, etc.

June 2013 Prd2

In the exhibition, Municipal Company Siauliu oro uostas along with the charter broker company FCG (Flight Consulting Group) Ltd. and customs warehouse operator UAB Rikusta presented a joint project New Baltic Air Cargo Gate, which aims to provide a package of air transport services via the Baltic region, in partnership of the three mentioned companies. The project provides a client willing to transport any type of cargo through Siauliai International Airport with all the flight organization and cargo/aircraft handling services “on a plate”.

June 2013 Prd3

Today

Tuesday, 11 December 2018

Aviation Weather Forecast

[source: ADDS]
METAR
EYSA 110650Z 30003KT 280V340 0700 0650NW R32R/0900N FZFG VV002 M02/M02 Q1008 R32R/29//95 AMB NOSIG =
TAF EYSA 110506Z 1106/1115 VRB05KT 0600 FZFG VV002 TEMPO 1106/1109 1500 BR PROB40 TEMPO 1106/1109 -FZDZ BECMG 1109/1110 5000 BR BKN005
TAF
TAF EYSA 110506Z 1106/1115 VRB05KT 0600 FZFG VV002 TEMPO 1106/1109 1500 BR PROB40 TEMPO 1106/1109 -FZDZ BECMG 1109/1110 5000 BR BKN005 =
SR / SS: 06:42 / 13:59 UTC (EYSA 2018-12-11)

Search

Who's Online

We have 22 guests online

tic logo en